Time;durP1;ratioP1;P1;durP2;ratioP2;P2;SDS_P1;SDS_P2;PMS_P1;PMS_P2;Temp;Humidity;BMP_temperature;BMP_pressure;BME280_temperature;BME280_humidity;BME280_pressure;Samples;Min_cycle;Max_cycle;Signal;HPM_P1;HPM_P2
2023/08/16 00:00:14;;;;;;;15.48;6.45;;;;;;;;;;5035728;28;20485;-80
2023/08/16 00:02:41;;;;;;;11.93;6.60;;;;;;;;;;5052783;28;20041;-80
2023/08/16 00:05:07;;;;;;;14.55;6.07;;;;;;;;;;5024222;28;20446;-80
2023/08/16 00:07:34;;;;;;;12.45;6.10;;;;;;;;;;5032577;28;20045;-80
2023/08/16 00:10:00;;;;;;;14.23;6.63;;;;;;;;;;5028187;28;20136;-80
2023/08/16 00:12:26;;;;;;;11.20;6.43;;;;;;;;;;5012902;28;20063;-80
2023/08/16 00:14:52;;;;;;;14.15;6.60;;;;;;;;;;5018500;28;20098;-80
2023/08/16 00:17:18;;;;;;;12.35;6.60;;;;;;;;;;5050826;28;20076;-80
2023/08/16 00:19:44;;;;;;;11.85;7.18;;;;;;;;;;5050751;28;20048;-80
2023/08/16 00:22:11;;;;;;;10.25;7.20;;;;;;;;;;5023585;28;20478;-80
2023/08/16 00:24:37;;;;;;;12.43;7.38;;;;;;;;;;5032947;28;20430;-80
2023/08/16 00:27:03;;;;;;;11.90;6.65;;;;;;;;;;5015022;28;20056;-79
2023/08/16 00:29:29;;;;;;;15.85;7.50;;;;;;;;;;5032993;28;20475;-79
2023/08/16 00:31:57;;;;;;;12.63;8.50;;;;;;;;;;5015145;28;20380;-78
2023/08/16 00:34:23;;;;;;;14.68;9.55;;;;;;;;;;5015429;28;20168;-78
2023/08/16 00:36:49;;;;;;;12.07;8.13;;;;;;;;;;5015236;28;20060;-79
2023/08/16 00:39:15;;;;;;;13.95;8.32;;;;;;;;;;5016098;28;20503;-79
2023/08/16 00:41:41;;;;;;;11.23;7.82;;;;;;;;;;5014790;28;20513;-79
2023/08/16 00:44:07;;;;;;;13.32;7.72;;;;;;;;;;5015225;28;20048;-79
2023/08/16 00:46:34;;;;;;;11.25;7.40;;;;;;;;;;5031537;28;20422;-79
2023/08/16 00:49:00;;;;;;;13.50;7.60;;;;;;;;;;5012944;28;20135;-79
2023/08/16 00:51:26;;;;;;;10.25;7.28;;;;;;;;;;5032467;28;20042;-79
2023/08/16 00:53:53;;;;;;;9.98;6.95;;;;;;;;;;5015352;28;20045;-79
2023/08/16 00:56:20;;;;;;;12.02;7.53;;;;;;;;;;5032436;28;20137;-79
2023/08/16 00:58:46;;;;;;;14.00;7.43;;;;;;;;;;5015012;28;20382;-79
2023/08/16 01:01:12;;;;;;;16.10;7.47;;;;;;;;;;5032554;28;20052;-79
2023/08/16 01:03:38;;;;;;;12.07;7.47;;;;;;;;;;5014621;28;20527;-79
2023/08/16 01:06:05;;;;;;;12.27;7.45;;;;;;;;;;5000528;28;20041;-80
2023/08/16 01:08:31;;;;;;;10.70;7.43;;;;;;;;;;5014810;28;20042;-79
2023/08/16 01:10:58;;;;;;;11.10;7.43;;;;;;;;;;5014156;28;20049;-80
2023/08/16 01:13:29;;;;;;;12.40;8.05;;;;;;;;;;5032607;28;20042;-79
2023/08/16 01:15:57;;;;;;;11.82;7.75;;;;;;;;;;4997893;28;20098;-79
2023/08/16 01:18:24;;;;;;;15.70;8.55;;;;;;;;;;5032848;28;20513;-79
2023/08/16 01:20:52;;;;;;;14.65;9.38;;;;;;;;;;5031848;28;20428;-79
2023/08/16 01:23:25;;;;;;;15.88;9.57;;;;;;;;;;5014436;28;20057;-79
2023/08/16 01:25:57;;;;;;;15.52;9.60;;;;;;;;;;5046410;28;20471;-79
2023/08/16 01:28:23;;;;;;;13.60;8.77;;;;;;;;;;5032548;28;20130;-79
2023/08/16 01:30:50;;;;;;;14.15;9.00;;;;;;;;;;5050239;28;20102;-79
2023/08/16 01:33:16;;;;;;;16.80;9.60;;;;;;;;;;5052097;28;20041;-79
2023/08/16 01:35:42;;;;;;;12.35;8.38;;;;;;;;;;5049598;28;20143;-79
2023/08/16 01:38:10;;;;;;;10.88;8.07;;;;;;;;;;5034505;28;20087;-79
2023/08/16 01:41:09;;;;;;;15.00;8.52;;;;;;;;;;5033774;28;20041;-79
2023/08/16 01:43:36;;;;;;;14.65;8.45;;;;;;;;;;4991132;28;20084;-80
2023/08/16 01:46:03;;;;;;;13.77;9.13;;;;;;;;;;5033865;28;20464;-80
2023/08/16 01:48:30;;;;;;;15.90;9.80;;;;;;;;;;5052700;28;20076;-79
2023/08/16 01:50:57;;;;;;;13.40;8.93;;;;;;;;;;5034271;28;20111;-79
2023/08/16 01:53:23;;;;;;;13.10;8.82;;;;;;;;;;5017883;28;20068;-79
2023/08/16 01:55:49;;;;;;;13.35;9.30;;;;;;;;;;5051250;28;20227;-79
2023/08/16 01:58:16;;;;;;;14.15;8.93;;;;;;;;;;5034037;28;20045;-79
2023/08/16 02:00:42;;;;;;;13.60;8.57;;;;;;;;;;5051489;28;20044;-79
2023/08/16 02:03:08;;;;;;;16.40;8.95;;;;;;;;;;5017300;28;20486;-80
2023/08/16 02:05:34;;;;;;;14.20;8.40;;;;;;;;;;5033425;28;20047;-79
2023/08/16 02:08:00;;;;;;;13.30;9.25;;;;;;;;;;5033317;28;20041;-79
2023/08/16 02:10:26;;;;;;;12.60;8.95;;;;;;;;;;5016655;28;20076;-79
2023/08/16 02:12:52;;;;;;;15.63;9.23;;;;;;;;;;5035380;28;20485;-79
2023/08/16 02:15:18;;;;;;;11.98;8.73;;;;;;;;;;5021257;28;20488;-79
2023/08/16 02:17:44;;;;;;;11.95;8.55;;;;;;;;;;5055238;28;20121;-79
2023/08/16 02:20:12;;;;;;;13.73;8.85;;;;;;;;;;5055817;28;20382;-79
2023/08/16 02:22:39;;;;;;;14.82;9.40;;;;;;;;;;5037274;28;20061;-79
2023/08/16 02:25:06;;;;;;;13.60;9.60;;;;;;;;;;5036964;28;20059;-79
2023/08/16 02:27:33;;;;;;;14.13;9.05;;;;;;;;;;5055283;28;20069;-80
2023/08/16 02:30:00;;;;;;;15.50;9.38;;;;;;;;;;5055356;28;20413;-80
2023/08/16 02:32:26;;;;;;;12.63;9.20;;;;;;;;;;5053827;28;20059;-80
2023/08/16 02:34:52;;;;;;;13.43;9.00;;;;;;;;;;5020657;28;20041;-79
2023/08/16 02:37:18;;;;;;;11.43;8.60;;;;;;;;;;5036661;28;20504;-80
2023/08/16 02:39:44;;;;;;;15.13;9.35;;;;;;;;;;5036900;28;20045;-80
2023/08/16 02:42:10;;;;;;;14.55;9.50;;;;;;;;;;5036914;28;20414;-80
2023/08/16 02:44:36;;;;;;;12.90;9.05;;;;;;;;;;5055172;28;20041;-79
2023/08/16 02:47:02;;;;;;;12.52;9.00;;;;;;;;;;5054444;28;20055;-80
2023/08/16 02:49:28;;;;;;;13.75;9.32;;;;;;;;;;5037073;28;20041;-80
2023/08/16 02:51:54;;;;;;;14.23;9.52;;;;;;;;;;5054750;28;20045;-80
2023/08/16 02:54:20;;;;;;;13.90;8.98;;;;;;;;;;5020434;28;20444;-79
2023/08/16 02:56:46;;;;;;;13.63;9.13;;;;;;;;;;5051709;28;20041;-78
2023/08/16 02:59:13;;;;;;;15.35;10.27;;;;;;;;;;5053188;28;20132;-79
2023/08/16 03:01:40;;;;;;;12.80;9.55;;;;;;;;;;5019962;28;20528;-79
2023/08/16 03:04:06;;;;;;;16.10;10.05;;;;;;;;;;5033388;28;20045;-78
2023/08/16 03:06:32;;;;;;;13.27;10.10;;;;;;;;;;5034831;28;20106;-78
2023/08/16 03:08:59;;;;;;;13.20;9.35;;;;;;;;;;5036552;28;20052;-79
2023/08/16 03:11:26;;;;;;;15.40;10.52;;;;;;;;;;5036357;28;20056;-80
2023/08/16 03:13:52;;;;;;;14.05;10.35;;;;;;;;;;5036624;28;20104;-79
2023/08/16 03:16:18;;;;;;;15.90;11.20;;;;;;;;;;5054218;28;20472;-78
2023/08/16 03:18:44;;;;;;;14.40;10.57;;;;;;;;;;5053824;28;20487;-79
2023/08/16 03:21:10;;;;;;;14.82;9.60;;;;;;;;;;5054353;28;20081;-80
2023/08/16 03:23:36;;;;;;;13.93;9.95;;;;;;;;;;5020189;28;20428;-79
2023/08/16 03:26:02;;;;;;;13.63;9.77;;;;;;;;;;5053811;28;20452;-79
2023/08/16 03:28:28;;;;;;;13.77;10.27;;;;;;;;;;5036111;28;20102;-80
2023/08/16 03:30:54;;;;;;;16.10;9.98;;;;;;;;;;5019052;28;20052;-80
2023/08/16 03:33:20;;;;;;;16.02;10.50;;;;;;;;;;5053620;28;20037;-80
2023/08/16 03:35:46;;;;;;;12.75;9.68;;;;;;;;;;5032694;28;20045;-80
2023/08/16 03:38:12;;;;;;;15.18;11.02;;;;;;;;;;5052726;28;20159;-80
2023/08/16 03:40:38;;;;;;;17.38;11.32;;;;;;;;;;5053291;28;20052;-80
2023/08/16 03:43:05;;;;;;;15.05;10.75;;;;;;;;;;5036480;28;20068;-80
2023/08/16 03:45:31;;;;;;;17.67;10.23;;;;;;;;;;5053769;28;20041;-80
2023/08/16 03:47:57;;;;;;;16.30;10.48;;;;;;;;;;5035847;28;20053;-80
2023/08/16 03:50:23;;;;;;;15.05;10.88;;;;;;;;;;5053967;28;20116;-80
2023/08/16 03:52:49;;;;;;;15.70;10.57;;;;;;;;;;5053750;28;20045;-80
2023/08/16 03:55:15;;;;;;;15.32;10.88;;;;;;;;;;5053829;28;20047;-80
2023/08/16 03:57:41;;;;;;;16.27;10.70;;;;;;;;;;5053587;28;20063;-80
2023/08/16 04:00:11;;;;;;;16.23;11.07;;;;;;;;;;5053593;28;20049;-80
2023/08/16 04:02:37;;;;;;;13.85;10.13;;;;;;;;;;5053288;28;20048;-79
2023/08/16 04:05:10;;;;;;;16.10;11.02;;;;;;;;;;5025358;28;20133;-80
2023/08/16 04:07:36;;;;;;;14.77;10.63;;;;;;;;;;5035039;28;20048;-80
2023/08/16 04:10:02;;;;;;;13.77;9.93;;;;;;;;;;5035436;28;20041;-80
2023/08/16 04:12:28;;;;;;;14.25;9.60;;;;;;;;;;5018773;28;20048;-80
2023/08/16 04:14:54;;;;;;;17.52;10.40;;;;;;;;;;5051780;28;20064;-79
2023/08/16 04:17:20;;;;;;;17.15;10.43;;;;;;;;;;5033402;28;20079;-80
2023/08/16 04:19:46;;;;;;;16.10;10.68;;;;;;;;;;5051152;28;20045;-80
2023/08/16 04:22:12;;;;;;;16.23;10.70;;;;;;;;;;5034343;28;20057;-80
2023/08/16 04:24:38;;;;;;;16.63;11.30;;;;;;;;;;5018157;28;20057;-79
2023/08/16 04:27:04;;;;;;;15.20;10.60;;;;;;;;;;5034826;28;20045;-80
2023/08/16 04:29:30;;;;;;;17.38;10.95;;;;;;;;;;5052011;28;20508;-80
2023/08/16 04:31:56;;;;;;;15.80;11.63;;;;;;;;;;5052230;28;20041;-80
2023/08/16 04:34:23;;;;;;;15.35;10.35;;;;;;;;;;5034421;28;20091;-80
2023/08/16 04:36:49;;;;;;;16.65;10.90;;;;;;;;;;5034648;28;20503;-79
2023/08/16 04:39:15;;;;;;;16.27;10.75;;;;;;;;;;5052494;28;20131;-80
2023/08/16 04:41:41;;;;;;;16.23;10.93;;;;;;;;;;5034412;28;20080;-80
2023/08/16 04:44:07;;;;;;;19.13;11.02;;;;;;;;;;5034848;28;20045;-79
2023/08/16 04:46:33;;;;;;;16.63;10.65;;;;;;;;;;5034371;28;20056;-80
2023/08/16 04:48:59;;;;;;;14.23;10.50;;;;;;;;;;5034615;28;20041;-79
2023/08/16 04:51:26;;;;;;;15.32;11.00;;;;;;;;;;5052144;28;20507;-80
2023/08/16 04:53:52;;;;;;;16.88;10.77;;;;;;;;;;5034769;28;20048;-80
2023/08/16 04:56:18;;;;;;;14.80;11.02;;;;;;;;;;5033807;28;20048;-80
2023/08/16 04:58:44;;;;;;;14.63;10.95;;;;;;;;;;5052716;28;20473;-80
2023/08/16 05:01:10;;;;;;;14.05;10.77;;;;;;;;;;5049659;28;20417;-80
2023/08/16 05:03:37;;;;;;;15.23;11.38;;;;;;;;;;5032949;28;20060;-80
2023/08/16 05:06:04;;;;;;;12.50;10.38;;;;;;;;;;5013585;28;20529;-80
2023/08/16 05:08:31;;;;;;;14.70;11.05;;;;;;;;;;5014744;28;20033;-80
2023/08/16 05:10:57;;;;;;;17.15;11.20;;;;;;;;;;5042950;28;20091;-80
2023/08/16 05:13:23;;;;;;;12.65;10.45;;;;;;;;;;5034417;28;20083;-80
2023/08/16 05:15:50;;;;;;;15.55;11.57;;;;;;;;;;5051411;28;20110;-80
2023/08/16 05:18:16;;;;;;;15.57;10.98;;;;;;;;;;5033688;28;20399;-80
2023/08/16 05:20:42;;;;;;;15.48;10.73;;;;;;;;;;5034204;28;20044;-80
2023/08/16 05:23:08;;;;;;;16.52;10.90;;;;;;;;;;5033858;28;20080;-80
2023/08/16 05:25:37;;;;;;;17.05;11.35;;;;;;;;;;5034084;28;20091;-80
2023/08/16 05:28:04;;;;;;;16.27;10.73;;;;;;;;;;5034674;28;20378;-81
2023/08/16 05:30:30;;;;;;;14.18;11.07;;;;;;;;;;5051813;28;20084;-80
2023/08/16 05:32:56;;;;;;;14.63;11.23;;;;;;;;;;5052020;28;20037;-81
2023/08/16 05:35:22;;;;;;;18.65;11.13;;;;;;;;;;5052075;28;20461;-81
2023/08/16 05:37:50;;;;;;;15.20;11.20;;;;;;;;;;5052253;28;20045;-80
2023/08/16 05:40:16;;;;;;;15.15;11.00;;;;;;;;;;5051597;28;20048;-80
2023/08/16 05:42:43;;;;;;;16.60;10.75;;;;;;;;;;5030655;28;20056;-80
2023/08/16 05:45:09;;;;;;;18.38;11.55;;;;;;;;;;5053276;28;20489;-80
2023/08/16 05:47:35;;;;;;;16.00;11.43;;;;;;;;;;5056009;28;20049;-80
2023/08/16 05:50:01;;;;;;;14.40;10.93;;;;;;;;;;5056242;28;20045;-80
2023/08/16 05:52:27;;;;;;;13.88;10.27;;;;;;;;;;5055516;28;20039;-80
2023/08/16 05:54:53;;;;;;;14.75;10.65;;;;;;;;;;5055889;28;20041;-80
2023/08/16 05:57:20;;;;;;;14.73;10.70;;;;;;;;;;5055618;28;20055;-80
2023/08/16 05:59:46;;;;;;;16.70;10.48;;;;;;;;;;5056229;28;20041;-80
2023/08/16 06:02:12;;;;;;;16.17;10.30;;;;;;;;;;5037959;28;20052;-80
2023/08/16 06:04:38;;;;;;;16.77;10.43;;;;;;;;;;5038534;28;20036;-80
2023/08/16 06:07:04;;;;;;;16.17;10.90;;;;;;;;;;5037574;28;20041;-80
2023/08/16 06:09:31;;;;;;;13.32;9.50;;;;;;;;;;5055157;28;20489;-80
2023/08/16 06:12:00;;;;;;;14.98;10.05;;;;;;;;;;5055674;28;20044;-80
2023/08/16 06:14:26;;;;;;;14.27;9.10;;;;;;;;;;5037661;28;20041;-80
2023/08/16 06:16:52;;;;;;;15.23;9.82;;;;;;;;;;5036605;28;20083;-80
2023/08/16 06:19:18;;;;;;;15.35;9.73;;;;;;;;;;5055559;28;20048;-80
2023/08/16 06:21:44;;;;;;;11.63;8.98;;;;;;;;;;5055362;28;20128;-80
2023/08/16 06:24:10;;;;;;;16.40;9.30;;;;;;;;;;5038102;28;20191;-81
2023/08/16 06:26:36;;;;;;;14.95;8.88;;;;;;;;;;5037277;28;20134;-80
2023/08/16 06:29:02;;;;;;;12.55;8.10;;;;;;;;;;5055565;28;20041;-81
2023/08/16 06:31:28;;;;;;;12.15;7.85;;;;;;;;;;5055082;28;20424;-80
2023/08/16 06:33:54;;;;;;;11.40;7.88;;;;;;;;;;5055631;28;20128;-80
2023/08/16 06:36:20;;;;;;;14.50;7.78;;;;;;;;;;5036918;28;20427;-80
2023/08/16 06:38:46;;;;;;;11.65;7.43;;;;;;;;;;5054437;28;20091;-80
2023/08/16 06:41:12;;;;;;;11.60;6.30;;;;;;;;;;5036765;28;20537;-80
2023/08/16 06:43:39;;;;;;;11.45;6.65;;;;;;;;;;5052580;28;20044;-80
2023/08/16 06:46:05;;;;;;;8.50;5.72;;;;;;;;;;5051838;28;20037;-78
2023/08/16 06:48:32;;;;;;;13.35;6.53;;;;;;;;;;5055702;28;20132;-79
2023/08/16 06:50:58;;;;;;;11.55;6.22;;;;;;;;;;5055333;28;20424;-79
2023/08/16 06:53:25;;;;;;;9.40;5.50;;;;;;;;;;5036578;28;20504;-79
2023/08/16 06:55:55;;;;;;;7.20;3.33;;;;;;;;;;5053297;28;20088;-81
2023/08/16 06:58:21;;;;;;;5.70;3.13;;;;;;;;;;5054949;28;20037;-81
2023/08/16 07:00:49;;;;;;;9.45;3.05;;;;;;;;;;5054770;28;20424;-81
2023/08/16 07:03:15;;;;;;;7.00;2.88;;;;;;;;;;5054732;28;20037;-79
2023/08/16 07:05:41;;;;;;;9.30;2.70;;;;;;;;;;5054370;28;20496;-79
2023/08/16 07:08:07;;;;;;;7.40;2.80;;;;;;;;;;5037709;28;20099;-79
2023/08/16 07:10:34;;;;;;;6.70;2.78;;;;;;;;;;5033905;28;20485;-78
2023/08/16 07:13:00;;;;;;;6.13;2.67;;;;;;;;;;5017338;28;20132;-78
2023/08/16 07:15:26;;;;;;;6.78;2.75;;;;;;;;;;5015924;28;20053;-78
2023/08/16 07:17:52;;;;;;;11.07;2.78;;;;;;;;;;5014699;28;20037;-78
2023/08/16 07:20:18;;;;;;;7.95;2.90;;;;;;;;;;5014466;28;20049;-79
2023/08/16 07:22:44;;;;;;;4.57;2.40;;;;;;;;;;5016229;28;20541;-79
2023/08/16 07:25:11;;;;;;;8.20;3.33;;;;;;;;;;5034207;28;20089;-78
2023/08/16 07:27:38;;;;;;;7.38;2.80;;;;;;;;;;5034307;28;20048;-79
2023/08/16 07:30:04;;;;;;;5.65;2.70;;;;;;;;;;5034485;28;20113;-79
2023/08/16 07:32:31;;;;;;;6.47;2.47;;;;;;;;;;5043884;28;20102;-79
2023/08/16 07:34:57;;;;;;;7.05;2.28;;;;;;;;;;5036119;28;20051;-79
2023/08/16 07:37:28;;;;;;;5.85;2.25;;;;;;;;;;5053709;28;20045;-79
2023/08/16 07:39:55;;;;;;;4.20;2.20;;;;;;;;;;5050804;28;20091;-79
2023/08/16 07:42:22;;;;;;;4.68;2.25;;;;;;;;;;5019152;28;20045;-78
2023/08/16 07:44:48;;;;;;;7.32;2.25;;;;;;;;;;5035731;28;20064;-78
2023/08/16 07:47:14;;;;;;;6.43;2.20;;;;;;;;;;5053374;28;20178;-79
2023/08/16 07:49:41;;;;;;;7.57;2.35;;;;;;;;;;5053180;28;20047;-81
2023/08/16 07:52:07;;;;;;;7.47;2.50;;;;;;;;;;5051583;28;20150;-81
2023/08/16 07:54:33;;;;;;;7.70;2.58;;;;;;;;;;5034654;28;20049;-80
2023/08/16 07:56:59;;;;;;;8.60;2.45;;;;;;;;;;5053195;28;20113;-79
2023/08/16 07:59:26;;;;;;;3.10;1.85;;;;;;;;;;5034964;28;20108;-79
2023/08/16 08:01:53;;;;;;;5.80;1.90;;;;;;;;;;5052610;28;20179;-79
2023/08/16 08:04:20;;;;;;;7.57;2.20;;;;;;;;;;5030484;28;20305;-79
2023/08/16 08:06:46;;;;;;;10.68;2.10;;;;;;;;;;5033183;28;20045;-80
2023/08/16 08:09:12;;;;;;;4.85;1.65;;;;;;;;;;5032807;28;20077;-79
2023/08/16 08:11:39;;;;;;;4.85;1.83;;;;;;;;;;5032252;28;20464;-79
2023/08/16 08:14:05;;;;;;;4.45;1.70;;;;;;;;;;5031115;28;20091;-79
2023/08/16 08:16:32;;;;;;;4.60;1.60;;;;;;;;;;5053118;28;20037;-80
2023/08/16 08:18:58;;;;;;;5.43;1.90;;;;;;;;;;5035891;28;20041;-81
2023/08/16 08:21:24;;;;;;;3.55;1.52;;;;;;;;;;5052431;28;20060;-81
2023/08/16 08:23:50;;;;;;;4.10;1.80;;;;;;;;;;5051434;28;20424;-79
2023/08/16 08:26:16;;;;;;;3.70;1.65;;;;;;;;;;5030586;28;20045;-79
2023/08/16 08:28:44;;;;;;;5.57;1.90;;;;;;;;;;5052860;28;20044;-79
2023/08/16 08:31:10;;;;;;;3.85;1.80;;;;;;;;;;5034652;28;20493;-78
2023/08/16 08:33:36;;;;;;;3.78;1.92;;;;;;;;;;5052289;28;20436;-78
2023/08/16 08:36:03;;;;;;;3.53;1.70;;;;;;;;;;5046672;28;20041;-78
2023/08/16 08:38:29;;;;;;;2.90;1.67;;;;;;;;;;5042227;28;20400;-78
2023/08/16 08:40:59;;;;;;;4.65;1.92;;;;;;;;;;5026698;28;20057;-78
2023/08/16 08:43:32;;;;;;;5.43;1.90;;;;;;;;;;5051838;28;20497;-76
2023/08/16 08:45:58;;;;;;;5.55;1.77;;;;;;;;;;5034410;28;20123;-80
2023/08/16 08:48:25;;;;;;;4.40;1.63;;;;;;;;;;5034756;28;20451;-80
2023/08/16 08:50:52;;;;;;;6.07;1.50;;;;;;;;;;5015657;28;20401;-81
2023/08/16 08:53:19;;;;;;;4.47;1.75;;;;;;;;;;5035461;28;20048;-81
2023/08/16 08:55:46;;;;;;;5.97;1.90;;;;;;;;;;5052476;28;20036;-81
2023/08/16 08:58:14;;;;;;;3.40;1.75;;;;;;;;;;5035087;28;20049;-81
2023/08/16 09:00:40;;;;;;;3.40;1.63;;;;;;;;;;5016262;28;20397;-81
2023/08/16 09:03:10;;;;;;;5.32;1.58;;;;;;;;;;5032908;28;20056;-82
2023/08/16 09:05:39;;;;;;;7.40;1.73;;;;;;;;;;5032700;28;20144;-81
2023/08/16 09:08:05;;;;;;;4.80;1.60;;;;;;;;;;5051015;28;20497;-81
2023/08/16 09:10:37;;;;;;;4.47;1.80;;;;;;;;;;5013205;28;20151;-80
2023/08/16 09:13:10;;;;;;;5.72;1.73;;;;;;;;;;5013433;28;20052;-81
2023/08/16 09:15:36;;;;;;;3.65;1.70;;;;;;;;;;4996419;28;20041;-81
2023/08/16 09:18:13;;;;;;;5.63;1.88;;;;;;;;;;5013547;28;20052;-81
2023/08/16 09:20:39;;;;;;;5.20;1.75;;;;;;;;;;4997644;28;20049;-80
2023/08/16 09:23:06;;;;;;;6.15;1.88;;;;;;;;;;5014557;28;20054;-81
2023/08/16 09:25:32;;;;;;;5.32;1.88;;;;;;;;;;5014621;28;20105;-81
2023/08/16 09:27:58;;;;;;;4.90;2.00;;;;;;;;;;5013385;28;20262;-81
2023/08/16 09:30:28;;;;;;;5.78;2.00;;;;;;;;;;5032362;28;20041;-82
2023/08/16 09:32:54;;;;;;;6.68;2.30;;;;;;;;;;5032304;28;20125;-80
2023/08/16 09:35:27;;;;;;;4.45;2.00;;;;;;;;;;5014203;28;20136;-81
2023/08/16 09:37:56;;;;;;;4.72;2.30;;;;;;;;;;5014329;28;20080;-81
2023/08/16 09:40:23;;;;;;;3.88;2.30;;;;;;;;;;5032440;28;20393;-81
2023/08/16 09:42:49;;;;;;;4.88;1.77;;;;;;;;;;5014376;28;20049;-81
2023/08/16 09:45:15;;;;;;;6.03;1.83;;;;;;;;;;5030849;28;20064;-81
2023/08/16 09:47:44;;;;;;;3.83;2.00;;;;;;;;;;5011676;28;20045;-82
2023/08/16 09:50:12;;;;;;;5.50;1.90;;;;;;;;;;5013386;28;20100;-82
2023/08/16 09:52:38;;;;;;;4.07;2.00;;;;;;;;;;5031951;28;20062;-82
2023/08/16 09:55:07;;;;;;;4.10;1.92;;;;;;;;;;5014509;28;20048;-80
2023/08/16 09:57:34;;;;;;;3.92;1.90;;;;;;;;;;5014235;28;20049;-80
2023/08/16 10:00:01;;;;;;;3.58;1.80;;;;;;;;;;5032313;28;20046;-78
2023/08/16 10:02:27;;;;;;;3.55;1.90;;;;;;;;;;5032196;28;20052;-79
2023/08/16 10:04:53;;;;;;;4.05;1.85;;;;;;;;;;5022530;28;20056;-80
2023/08/16 10:07:20;;;;;;;3.30;1.50;;;;;;;;;;5050091;28;20167;-79
2023/08/16 10:09:47;;;;;;;3.50;1.73;;;;;;;;;;5034206;28;20163;-79
2023/08/16 10:12:14;;;;;;;3.67;1.70;;;;;;;;;;5032135;28;20135;-79
2023/08/16 10:14:40;;;;;;;3.40;1.50;;;;;;;;;;5049572;28;20080;-79
2023/08/16 10:17:06;;;;;;;5.10;1.70;;;;;;;;;;5051164;28;20174;-80
2023/08/16 10:19:33;;;;;;;3.25;1.60;;;;;;;;;;5036176;28;20514;-80
2023/08/16 10:22:00;;;;;;;4.25;1.77;;;;;;;;;;5032126;28;20061;-81
2023/08/16 10:24:30;;;;;;;3.55;1.50;;;;;;;;;;5048304;28;20053;-78
2023/08/16 10:26:57;;;;;;;3.33;1.40;;;;;;;;;;5048792;28;20041;-80
2023/08/16 10:29:24;;;;;;;3.88;1.50;;;;;;;;;;5049392;28;20048;-80
2023/08/16 10:31:52;;;;;;;3.95;1.40;;;;;;;;;;5030838;28;20041;-82
2023/08/16 10:34:19;;;;;;;4.35;1.38;;;;;;;;;;5051777;28;20037;-81
2023/08/16 10:36:46;;;;;;;3.92;1.50;;;;;;;;;;5034774;28;20472;-81
2023/08/16 10:39:22;;;;;;;5.53;1.75;;;;;;;;;;5052395;28;20052;-82
2023/08/16 10:41:50;;;;;;;2.80;1.30;;;;;;;;;;5052345;28;20465;-82
2023/08/16 10:44:26;;;;;;;3.92;1.35;;;;;;;;;;5018084;28;20452;-82
2023/08/16 10:46:52;;;;;;;3.33;1.40;;;;;;;;;;5052142;28;20055;-81
2023/08/16 10:49:18;;;;;;;3.72;1.40;;;;;;;;;;5052060;28;20057;-81
2023/08/16 10:51:45;;;;;;;2.45;1.33;;;;;;;;;;5052021;28;20076;-77
2023/08/16 10:54:11;;;;;;;3.53;1.55;;;;;;;;;;5034436;28;20049;-78
2023/08/16 10:56:44;;;;;;;3.75;1.42;;;;;;;;;;5034308;28;20400;-77
2023/08/16 10:59:12;;;;;;;4.70;1.35;;;;;;;;;;5052519;28;20081;-77
2023/08/16 11:01:44;;;;;;;2.30;1.30;;;;;;;;;;5051746;28;20060;-78
2023/08/16 11:04:10;;;;;;;3.38;1.40;;;;;;;;;;5033534;28;20480;-77
2023/08/16 11:06:40;;;;;;;5.28;1.65;;;;;;;;;;5050808;28;20041;-78
2023/08/16 11:09:07;;;;;;;3.65;1.40;;;;;;;;;;5051602;28;20045;-79
2023/08/16 11:11:37;;;;;;;3.88;1.40;;;;;;;;;;5031406;28;20450;-81
2023/08/16 11:14:06;;;;;;;4.32;1.70;;;;;;;;;;5035987;28;20045;-81
2023/08/16 11:16:32;;;;;;;3.45;1.42;;;;;;;;;;5033806;28;20051;-81
2023/08/16 11:19:00;;;;;;;5.85;1.90;;;;;;;;;;5051917;28;20092;-81
2023/08/16 11:21:26;;;;;;;4.18;1.80;;;;;;;;;;5033220;28;20061;-81
2023/08/16 11:23:55;;;;;;;8.23;1.98;;;;;;;;;;5051904;28;20048;-81
2023/08/16 11:26:21;;;;;;;3.80;1.55;;;;;;;;;;5049926;28;20114;-81
2023/08/16 11:28:47;;;;;;;3.58;1.75;;;;;;;;;;5051234;28;20501;-81
2023/08/16 11:31:13;;;;;;;4.60;2.10;;;;;;;;;;5032936;28;20040;-81
2023/08/16 11:33:40;;;;;;;5.78;2.00;;;;;;;;;;5049199;28;20078;-80
2023/08/16 11:36:08;;;;;;;5.05;2.17;;;;;;;;;;5049319;28;20052;-80
2023/08/16 11:38:34;;;;;;;4.90;2.05;;;;;;;;;;5033123;28;20103;-81
2023/08/16 11:41:01;;;;;;;2.95;1.77;;;;;;;;;;5050857;28;20056;-80
2023/08/16 11:43:28;;;;;;;4.68;2.10;;;;;;;;;;5051138;28;20045;-80
2023/08/16 11:45:54;;;;;;;4.35;2.10;;;;;;;;;;5032980;28;20444;-81
2023/08/16 11:48:20;;;;;;;5.25;2.20;;;;;;;;;;5050993;28;20084;-80
2023/08/16 11:50:46;;;;;;;6.63;2.50;;;;;;;;;;5050843;28;20063;-79
2023/08/16 11:53:16;;;;;;;5.82;2.30;;;;;;;;;;5033110;28;20088;-80
2023/08/16 11:55:42;;;;;;;4.68;2.17;;;;;;;;;;5034807;28;20049;-80
2023/08/16 11:58:08;;;;;;;4.43;1.85;;;;;;;;;;5052985;28;20091;-78
2023/08/16 12:00:35;;;;;;;4.63;1.85;;;;;;;;;;5035166;28;20066;-79
2023/08/16 12:03:02;;;;;;;6.28;1.70;;;;;;;;;;5035287;28;20131;-77
2023/08/16 12:05:33;;;;;;;4.50;1.85;;;;;;;;;;5052756;28;20095;-78
2023/08/16 12:08:03;;;;;;;5.05;1.73;;;;;;;;;;5053447;28;20452;-78
2023/08/16 12:10:32;;;;;;;4.82;2.05;;;;;;;;;;5035026;28;20556;-78
2023/08/16 12:12:58;;;;;;;7.10;1.90;;;;;;;;;;5051775;28;20057;-78
2023/08/16 12:15:26;;;;;;;5.63;2.00;;;;;;;;;;5053021;28;20176;-78
2023/08/16 12:17:52;;;;;;;6.85;1.77;;;;;;;;;;5052742;28;20051;-78
2023/08/16 12:20:19;;;;;;;5.05;1.90;;;;;;;;;;5052805;28;20412;-79
2023/08/16 12:22:45;;;;;;;4.18;1.90;;;;;;;;;;5050622;28;20060;-78
2023/08/16 12:25:11;;;;;;;3.17;1.80;;;;;;;;;;5035044;28;20080;-78
2023/08/16 12:27:38;;;;;;;5.78;2.00;;;;;;;;;;5052959;28;20379;-78
2023/08/16 12:30:04;;;;;;;4.22;2.28;;;;;;;;;;5035024;28;20036;-78
2023/08/16 12:32:31;;;;;;;3.47;1.73;;;;;;;;;;5052731;28;20492;-79
2023/08/16 12:34:57;;;;;;;5.00;1.80;;;;;;;;;;5051318;28;20068;-78
2023/08/16 12:37:23;;;;;;;5.15;1.95;;;;;;;;;;5035177;28;20049;-78
2023/08/16 12:39:49;;;;;;;5.28;1.77;;;;;;;;;;5034963;28;20148;-79
2023/08/16 12:42:15;;;;;;;7.22;1.95;;;;;;;;;;5052976;28;20071;-78
2023/08/16 12:44:41;;;;;;;3.78;1.70;;;;;;;;;;5034885;28;20053;-78
2023/08/16 12:47:07;;;;;;;5.68;1.70;;;;;;;;;;5052578;28;20048;-77
2023/08/16 12:49:33;;;;;;;4.30;1.60;;;;;;;;;;5052619;28;20079;-78
2023/08/16 12:51:59;;;;;;;5.28;1.67;;;;;;;;;;5034888;28;20394;-78
2023/08/16 12:54:26;;;;;;;4.13;1.80;;;;;;;;;;5034159;28;20110;-78
2023/08/16 12:56:52;;;;;;;3.80;1.60;;;;;;;;;;5034545;28;20045;-79
2023/08/16 12:59:18;;;;;;;4.85;1.55;;;;;;;;;;5035047;28;20050;-78
2023/08/16 13:01:48;;;;;;;6.32;1.70;;;;;;;;;;5052236;28;20153;-78
2023/08/16 13:04:14;;;;;;;4.82;1.77;;;;;;;;;;5052528;28;20076;-78
2023/08/16 13:06:40;;;;;;;4.90;1.65;;;;;;;;;;5032664;28;20385;-79
2023/08/16 13:09:10;;;;;;;3.35;1.60;;;;;;;;;;5034279;28;20041;-78
2023/08/16 13:11:36;;;;;;;5.95;1.70;;;;;;;;;;5052197;28;20033;-78
2023/08/16 13:14:08;;;;;;;6.85;1.80;;;;;;;;;;5052771;28;20386;-78
2023/08/16 13:16:35;;;;;;;4.10;1.67;;;;;;;;;;5050735;28;20049;-78
2023/08/16 13:19:01;;;;;;;4.38;1.80;;;;;;;;;;5052396;28;20052;-78
2023/08/16 13:21:28;;;;;;;7.68;1.70;;;;;;;;;;5051647;28;20468;-78
2023/08/16 13:23:54;;;;;;;4.30;1.50;;;;;;;;;;5052363;28;20128;-78
2023/08/16 13:26:20;;;;;;;4.97;1.70;;;;;;;;;;5051716;28;20044;-78
2023/08/16 13:28:46;;;;;;;5.28;1.50;;;;;;;;;;5052490;28;20041;-78
2023/08/16 13:31:12;;;;;;;3.50;1.60;;;;;;;;;;5051884;28;20490;-78
2023/08/16 13:33:38;;;;;;;7.78;1.50;;;;;;;;;;5034485;28;20094;-78
2023/08/16 13:36:04;;;;;;;4.60;1.30;;;;;;;;;;5034255;28;20045;-79
2023/08/16 13:38:30;;;;;;;5.45;1.50;;;;;;;;;;5034612;28;20084;-79
2023/08/16 13:40:56;;;;;;;3.95;1.50;;;;;;;;;;5033816;28;20048;-78
2023/08/16 13:43:22;;;;;;;3.03;1.33;;;;;;;;;;5052195;28;20095;-79
2023/08/16 13:45:48;;;;;;;5.93;1.40;;;;;;;;;;5033837;28;20057;-78
2023/08/16 13:48:14;;;;;;;4.18;1.80;;;;;;;;;;5052253;28;20048;-78
2023/08/16 13:50:41;;;;;;;2.72;1.38;;;;;;;;;;5051240;28;20107;-78
2023/08/16 13:53:07;;;;;;;4.45;1.30;;;;;;;;;;5050959;28;20080;-78
2023/08/16 13:55:33;;;;;;;3.70;1.30;;;;;;;;;;5033885;28;20093;-78
2023/08/16 13:57:59;;;;;;;3.70;1.52;;;;;;;;;;5033915;28;20049;-78
2023/08/16 14:00:25;;;;;;;5.15;1.60;;;;;;;;;;5051853;28;20504;-78
2023/08/16 14:02:52;;;;;;;3.97;1.40;;;;;;;;;;5033848;28;20041;-78
2023/08/16 14:05:19;;;;;;;3.60;1.50;;;;;;;;;;5016883;28;20047;-79
2023/08/16 14:07:46;;;;;;;4.93;1.50;;;;;;;;;;5055725;28;20450;-79
2023/08/16 14:10:13;;;;;;;4.00;1.70;;;;;;;;;;5055743;28;20045;-78
2023/08/16 14:12:40;;;;;;;3.45;1.60;;;;;;;;;;5037633;28;20049;-78
2023/08/16 14:15:06;;;;;;;4.35;1.80;;;;;;;;;;5037626;28;20049;-78
2023/08/16 14:17:32;;;;;;;9.00;1.63;;;;;;;;;;5037595;28;20048;-78
2023/08/16 14:19:58;;;;;;;4.43;1.60;;;;;;;;;;5037630;28;20057;-77
2023/08/16 14:22:24;;;;;;;3.67;1.50;;;;;;;;;;5037160;28;20144;-78
2023/08/16 14:24:50;;;;;;;3.95;1.50;;;;;;;;;;5055634;28;20504;-78
2023/08/16 14:27:17;;;;;;;4.50;1.40;;;;;;;;;;5055360;28;20048;-78
2023/08/16 14:29:43;;;;;;;3.88;1.70;;;;;;;;;;5037802;28;20051;-78